Time;durP1;ratioP1;P1;durP2;ratioP2;P2;SDS_P1;SDS_P2;PMS_P1;PMS_P2;Temp;Humidity;BMP_temperature;BMP_pressure;BME280_temperature;BME280_humidity;BME280_pressure;Samples;Min_cycle;Max_cycle;Signal;HPM_P1;HPM_P2
2023/06/21 00:00:46;;;;;;;13.52;8.88;;;;;;;;;;6306835;22;20157;-90
2023/06/21 00:03:53;;;;;;;13.93;9.45;;;;;;;;;;6309073;22;20156;-90
2023/06/21 00:06:58;;;;;;;20.30;10.80;;;;;;;;;;6307618;22;20235;-90
2023/06/21 00:10:03;;;;;;;17.10;10.57;;;;;;;;;;6306983;22;20153;-90
2023/06/21 00:13:09;;;;;;;20.13;11.45;;;;;;;;;;6303913;22;20173;-91
2023/06/21 00:16:14;;;;;;;21.25;10.50;;;;;;;;;;6303608;22;20164;-87
2023/06/21 00:19:21;;;;;;;16.27;9.52;;;;;;;;;;6305028;22;20145;-90
2023/06/21 00:22:28;;;;;;;21.02;10.50;;;;;;;;;;6305557;22;20200;-91
2023/06/21 00:25:33;;;;;;;15.45;9.68;;;;;;;;;;6306713;22;20265;-91
2023/06/21 00:28:37;;;;;;;14.68;9.57;;;;;;;;;;6305718;22;20160;-90
2023/06/21 00:31:43;;;;;;;17.88;10.02;;;;;;;;;;6304388;22;20221;-90
2023/06/21 00:34:51;;;;;;;18.30;10.85;;;;;;;;;;6305255;22;20190;-90
2023/06/21 00:37:56;;;;;;;18.60;10.43;;;;;;;;;;6306916;22;20235;-90
2023/06/21 00:41:10;;;;;;;19.60;10.52;;;;;;;;;;6306697;22;20161;-91
2023/06/21 00:44:15;;;;;;;20.63;11.27;;;;;;;;;;6307115;22;20181;-91
2023/06/21 00:47:22;;;;;;;18.73;10.40;;;;;;;;;;6306094;22;20165;-91
2023/06/21 00:50:30;;;;;;;20.35;10.13;;;;;;;;;;6308710;22;20149;-90
2023/06/21 00:53:40;;;;;;;16.42;10.07;;;;;;;;;;6306764;22;20580;-90
2023/06/21 00:56:48;;;;;;;19.00;10.65;;;;;;;;;;6306131;22;20165;-90
2023/06/21 00:59:53;;;;;;;17.98;10.30;;;;;;;;;;6305350;22;20169;-88
2023/06/21 01:02:59;;;;;;;17.70;9.85;;;;;;;;;;6303678;22;20651;-91
2023/06/21 01:06:13;;;;;;;16.23;10.43;;;;;;;;;;6302681;22;20149;-92
2023/06/21 01:09:27;;;;;;;15.82;9.70;;;;;;;;;;6305002;22;20169;-91
2023/06/21 01:12:37;;;;;;;20.48;10.73;;;;;;;;;;6303803;22;20196;-92
2023/06/21 01:15:44;;;;;;;19.65;10.57;;;;;;;;;;6304740;22;20248;-89
2023/06/21 01:19:02;;;;;;;18.45;10.23;;;;;;;;;;6303224;22;20145;-91
2023/06/21 01:22:23;;;;;;;17.17;11.15;;;;;;;;;;6303394;22;20173;-91
2023/06/21 01:25:31;;;;;;;17.63;10.30;;;;;;;;;;6305313;22;20232;-91
2023/06/21 01:28:47;;;;;;;17.65;10.15;;;;;;;;;;6306190;22;20208;-88
2023/06/21 01:31:56;;;;;;;21.55;10.93;;;;;;;;;;6305571;22;20168;-90
2023/06/21 01:35:02;;;;;;;18.02;10.43;;;;;;;;;;6306044;22;20169;-92
2023/06/21 01:38:07;;;;;;;15.65;10.48;;;;;;;;;;6305731;22;20180;-90
2023/06/21 01:41:13;;;;;;;18.83;10.65;;;;;;;;;;6306016;22;20211;-91
2023/06/21 01:44:18;;;;;;;17.60;10.75;;;;;;;;;;6303998;22;20153;-89
2023/06/21 01:47:25;;;;;;;19.50;10.13;;;;;;;;;;6305905;22;20160;-90
2023/06/21 01:50:31;;;;;;;18.52;10.57;;;;;;;;;;6304889;22;20216;-90
2023/06/21 01:53:36;;;;;;;16.67;10.57;;;;;;;;;;6303791;22;20494;-90
2023/06/21 01:56:51;;;;;;;17.23;10.25;;;;;;;;;;6304464;22;20149;-90
2023/06/21 01:59:59;;;;;;;16.33;10.77;;;;;;;;;;6304294;22;20157;-90
2023/06/21 02:03:09;;;;;;;17.50;11.05;;;;;;;;;;6305606;22;20239;-91
2023/06/21 02:06:14;;;;;;;19.85;11.38;;;;;;;;;;6307204;22;20172;-91
2023/06/21 02:09:20;;;;;;;21.55;10.48;;;;;;;;;;6303951;22;20173;-91
2023/06/21 02:12:33;;;;;;;16.63;10.90;;;;;;;;;;6305187;22;20168;-89
2023/06/21 02:15:40;;;;;;;18.42;10.63;;;;;;;;;;6305230;22;20184;-89
2023/06/21 02:22:20;;;;;;;17.98;10.77;;;;;;;;;;6306719;22;20216;-90
2023/06/21 02:25:26;;;;;;;18.40;11.13;;;;;;;;;;6305786;22;20172;-90
2023/06/21 02:28:34;;;;;;;15.77;10.05;;;;;;;;;;6305229;22;20153;-89
2023/06/21 02:31:39;;;;;;;18.42;10.48;;;;;;;;;;6306137;22;20905;-91
2023/06/21 02:34:44;;;;;;;18.70;10.00;;;;;;;;;;6305917;22;20165;-91
2023/06/21 02:37:51;;;;;;;16.70;10.27;;;;;;;;;;6305072;22;20184;-89
2023/06/21 02:41:36;;;;;;;17.35;9.75;;;;;;;;;;6305538;22;20162;-89
2023/06/21 02:44:42;;;;;;;18.77;10.27;;;;;;;;;;6305363;22;20165;-91
2023/06/21 02:47:46;;;;;;;15.50;10.68;;;;;;;;;;6305195;22;20165;-90
2023/06/21 02:50:53;;;;;;;17.73;10.05;;;;;;;;;;6305093;22;20241;-89
2023/06/21 02:54:00;;;;;;;16.58;10.25;;;;;;;;;;6304507;22;20165;-88
2023/06/21 02:57:33;;;;;;;16.08;9.23;;;;;;;;;;6304542;22;20219;-89
2023/06/21 03:00:40;;;;;;;17.05;9.40;;;;;;;;;;6306483;22;20149;-91
2023/06/21 03:03:46;;;;;;;16.10;9.80;;;;;;;;;;6305760;22;20192;-91
2023/06/21 03:06:51;;;;;;;18.88;10.35;;;;;;;;;;6303809;22;20172;-91
2023/06/21 03:09:58;;;;;;;14.00;9.40;;;;;;;;;;6303429;22;20169;-88
2023/06/21 03:13:03;;;;;;;17.77;9.70;;;;;;;;;;6303167;22;20177;-90
2023/06/21 03:16:09;;;;;;;15.35;9.63;;;;;;;;;;6302428;22;20165;-91
2023/06/21 03:19:15;;;;;;;18.75;10.45;;;;;;;;;;6303558;22;20708;-91
2023/06/21 03:22:21;;;;;;;15.02;10.25;;;;;;;;;;6306475;22;20212;-91
2023/06/21 03:25:28;;;;;;;14.82;10.75;;;;;;;;;;6305743;22;20266;-90
2023/06/21 03:28:34;;;;;;;15.82;10.15;;;;;;;;;;6307145;22;20560;-91
2023/06/21 03:31:40;;;;;;;17.48;10.70;;;;;;;;;;6307366;22;20173;-92
2023/06/21 03:34:46;;;;;;;17.27;10.80;;;;;;;;;;6308150;22;20191;-90
2023/06/21 03:37:51;;;;;;;18.23;11.27;;;;;;;;;;6306082;22;20165;-91
2023/06/21 03:44:58;;;;;;;18.35;11.80;;;;;;;;;;6308608;22;20274;-91
2023/06/21 03:48:05;;;;;;;20.02;12.13;;;;;;;;;;6305205;22;20161;-91
2023/06/21 03:51:12;;;;;;;21.67;11.93;;;;;;;;;;6306469;22;20165;-90
2023/06/21 03:54:18;;;;;;;25.52;11.98;;;;;;;;;;6307446;22;20151;-92
2023/06/21 03:57:24;;;;;;;21.80;11.90;;;;;;;;;;6306758;22;20211;-92
2023/06/21 04:00:57;;;;;;;21.42;11.57;;;;;;;;;;6307004;22;20212;-91
2023/06/21 04:04:04;;;;;;;22.15;12.13;;;;;;;;;;6306217;22;20223;-91
2023/06/21 04:07:09;;;;;;;24.15;11.55;;;;;;;;;;6305824;22;20152;-90
2023/06/21 04:10:14;;;;;;;21.88;11.68;;;;;;;;;;6305614;22;20165;-91
2023/06/21 04:13:20;;;;;;;19.27;11.88;;;;;;;;;;6305815;22;20211;-91
2023/06/21 04:16:26;;;;;;;19.05;11.38;;;;;;;;;;6308107;22;20216;-91
2023/06/21 04:19:33;;;;;;;22.92;12.05;;;;;;;;;;6306027;22;20162;-91
2023/06/21 04:22:46;;;;;;;23.10;11.55;;;;;;;;;;6306800;22;20208;-91
2023/06/21 04:25:51;;;;;;;18.08;11.30;;;;;;;;;;6306479;22;20621;-91
2023/06/21 04:29:01;;;;;;;19.05;11.57;;;;;;;;;;6306193;22;20201;-92
2023/06/21 04:32:06;;;;;;;20.75;12.20;;;;;;;;;;6307972;22;20173;-91
2023/06/21 04:35:14;;;;;;;24.33;11.13;;;;;;;;;;6307176;22;20181;-90
2023/06/21 04:38:31;;;;;;;19.33;10.95;;;;;;;;;;6306270;22;20157;-89
2023/06/21 04:41:38;;;;;;;19.95;11.52;;;;;;;;;;6305857;22;20169;-90
2023/06/21 04:44:54;;;;;;;20.33;11.68;;;;;;;;;;6305747;22;20271;-91
2023/06/21 04:48:00;;;;;;;20.23;11.27;;;;;;;;;;6311945;22;20239;-91
2023/06/21 04:51:06;;;;;;;23.13;11.52;;;;;;;;;;6306693;22;20225;-90
2023/06/21 04:54:11;;;;;;;18.23;11.40;;;;;;;;;;6305608;22;20169;-91
2023/06/21 04:57:22;;;;;;;22.92;12.02;;;;;;;;;;6306376;22;20601;-91
2023/06/21 05:00:27;;;;;;;25.60;12.18;;;;;;;;;;6307364;22;20237;-91
2023/06/21 05:03:41;;;;;;;22.52;12.90;;;;;;;;;;6307815;22;20231;-91
2023/06/21 05:06:48;;;;;;;20.50;12.68;;;;;;;;;;6304373;22;20176;-90
2023/06/21 05:09:53;;;;;;;22.55;12.82;;;;;;;;;;6305914;22;20153;-91
2023/06/21 05:12:58;;;;;;;19.15;12.43;;;;;;;;;;6307090;22;20244;-90
2023/06/21 05:16:04;;;;;;;22.42;13.00;;;;;;;;;;6307682;22;20180;-90
2023/06/21 05:19:34;;;;;;;24.92;13.68;;;;;;;;;;6306439;22;20180;-91
2023/06/21 05:22:41;;;;;;;20.50;12.00;;;;;;;;;;6307286;22;20196;-90
2023/06/21 05:25:46;;;;;;;20.27;12.52;;;;;;;;;;6303964;22;20189;-89
2023/06/21 05:28:52;;;;;;;19.92;12.75;;;;;;;;;;6303728;22;20191;-90
2023/06/21 05:31:57;;;;;;;24.38;13.07;;;;;;;;;;6305278;22;20180;-92
2023/06/21 05:35:04;;;;;;;29.30;13.23;;;;;;;;;;6310459;22;20153;-89
2023/06/21 05:38:15;;;;;;;21.75;12.90;;;;;;;;;;6307211;22;20664;-88
2023/06/21 05:41:28;;;;;;;21.30;11.73;;;;;;;;;;6308356;22;20165;-92
2023/06/21 05:44:37;;;;;;;24.63;12.05;;;;;;;;;;6308079;22;20204;-93
2023/06/21 05:47:42;;;;;;;21.35;12.02;;;;;;;;;;6304083;22;20651;-91
2023/06/21 05:50:47;;;;;;;22.98;11.63;;;;;;;;;;6305808;22;20165;-91
2023/06/21 05:53:57;;;;;;;25.90;12.52;;;;;;;;;;6304850;22;20543;-88
2023/06/21 05:57:04;;;;;;;19.85;11.95;;;;;;;;;;6303667;22;20569;-89
2023/06/21 06:00:10;;;;;;;23.13;11.10;;;;;;;;;;6306147;22;20551;-90
2023/06/21 06:03:25;;;;;;;20.50;12.00;;;;;;;;;;6303411;22;20189;-90
2023/06/21 06:06:38;;;;;;;23.58;12.05;;;;;;;;;;6306617;22;20174;-90
2023/06/21 06:09:45;;;;;;;21.67;11.50;;;;;;;;;;6305809;22;20184;-90
2023/06/21 06:12:50;;;;;;;18.30;11.10;;;;;;;;;;6304028;22;20235;-90
2023/06/21 06:15:55;;;;;;;21.98;11.65;;;;;;;;;;6304596;22;20191;-92
2023/06/21 06:19:00;;;;;;;22.85;12.18;;;;;;;;;;6305300;22;20160;-88
2023/06/21 06:22:06;;;;;;;19.95;11.73;;;;;;;;;;6305130;22;20177;-90
2023/06/21 06:25:13;;;;;;;22.67;11.55;;;;;;;;;;6305628;22;20219;-90
2023/06/21 06:28:19;;;;;;;19.25;10.57;;;;;;;;;;6304391;22;20236;-89
2023/06/21 06:31:30;;;;;;;19.85;11.57;;;;;;;;;;6305794;22;20188;-90
2023/06/21 06:34:35;;;;;;;19.27;10.55;;;;;;;;;;6306037;22;20168;-88
2023/06/21 06:37:40;;;;;;;20.25;11.70;;;;;;;;;;6306287;22;20172;-88
2023/06/21 06:40:49;;;;;;;23.25;10.63;;;;;;;;;;6303087;22;20165;-90
2023/06/21 06:43:54;;;;;;;16.58;10.18;;;;;;;;;;6301279;22;20247;-91
2023/06/21 06:47:00;;;;;;;21.00;10.35;;;;;;;;;;6304046;22;20608;-89
2023/06/21 06:50:07;;;;;;;23.95;10.60;;;;;;;;;;6305428;22;20285;-90
2023/06/21 06:53:12;;;;;;;22.45;10.68;;;;;;;;;;6307072;22;20173;-90
2023/06/21 06:56:30;;;;;;;16.30;10.15;;;;;;;;;;6306239;22;20211;-89
2023/06/21 06:59:35;;;;;;;18.20;10.10;;;;;;;;;;6304581;22;20585;-88
2023/06/21 07:02:43;;;;;;;15.88;10.27;;;;;;;;;;6306434;22;20153;-87
2023/06/21 07:05:49;;;;;;;17.48;10.52;;;;;;;;;;6308383;22;20172;-90
2023/06/21 07:08:54;;;;;;;20.92;10.90;;;;;;;;;;6306010;22;20173;-88
2023/06/21 07:12:01;;;;;;;15.43;9.75;;;;;;;;;;6305970;22;20169;-92
2023/06/21 07:15:11;;;;;;;19.60;10.27;;;;;;;;;;6302313;22;20620;-90
2023/06/21 07:18:42;;;;;;;15.45;10.45;;;;;;;;;;6304800;22;20210;-89
2023/06/21 07:21:52;;;;;;;18.83;9.25;;;;;;;;;;6307373;22;20176;-89
2023/06/21 07:24:58;;;;;;;15.18;9.80;;;;;;;;;;6307174;22;20216;-87
2023/06/21 07:28:05;;;;;;;15.88;9.05;;;;;;;;;;6303563;22;20611;-86
2023/06/21 07:31:20;;;;;;;16.85;9.05;;;;;;;;;;6310072;22;20163;-89
2023/06/21 07:34:25;;;;;;;16.98;8.45;;;;;;;;;;6305398;22;20157;-88
2023/06/21 07:37:31;;;;;;;16.52;8.82;;;;;;;;;;6310835;22;20243;-89
2023/06/21 07:40:39;;;;;;;12.98;8.13;;;;;;;;;;6307307;22;20168;-90
2023/06/21 07:43:45;;;;;;;16.52;8.93;;;;;;;;;;6304620;22;20214;-89
2023/06/21 07:46:52;;;;;;;12.93;8.65;;;;;;;;;;6304904;22;20172;-92
2023/06/21 07:49:57;;;;;;;15.48;8.80;;;;;;;;;;6306477;22;20191;-89
2023/06/21 07:53:03;;;;;;;16.42;8.60;;;;;;;;;;6305212;22;20188;-89
2023/06/21 07:56:16;;;;;;;14.77;8.63;;;;;;;;;;6304681;22;20238;-90
2023/06/21 07:59:22;;;;;;;20.35;8.95;;;;;;;;;;6310145;22;20207;-91
2023/06/21 08:02:28;;;;;;;18.58;8.57;;;;;;;;;;6304980;22;20159;-92
2023/06/21 16:40:50;;;;;;;11.75;3.05;;;;;;;;;;6166848;23;20173;-89
2023/06/21 16:43:55;;;;;;;21.75;3.47;;;;;;;;;;6164959;23;20184;-89
2023/06/21 16:47:00;;;;;;;17.05;3.05;;;;;;;;;;6149675;23;20240;-91
2023/06/21 16:50:06;;;;;;;15.73;3.22;;;;;;;;;;6166804;23;20285;-90
2023/06/21 16:53:11;;;;;;;12.57;2.90;;;;;;;;;;6166391;23;20252;-89
2023/06/21 16:56:47;;;;;;;9.77;2.63;;;;;;;;;;6166395;23;20222;-90
2023/06/21 16:59:54;;;;;;;9.30;2.80;;;;;;;;;;6152590;23;20169;-92
2023/06/21 17:03:00;;;;;;;9.02;3.25;;;;;;;;;;6171654;23;20177;-90
2023/06/21 17:06:06;;;;;;;14.88;3.25;;;;;;;;;;6167683;23;20220;-90
2023/06/21 17:09:11;;;;;;;12.98;2.65;;;;;;;;;;6170376;23;20153;-89
2023/06/21 17:12:18;;;;;;;13.45;3.30;;;;;;;;;;6171002;23;20165;-91
2023/06/21 17:15:25;;;;;;;12.05;2.97;;;;;;;;;;6169724;23;20164;-87
2023/06/21 17:18:33;;;;;;;7.85;2.63;;;;;;;;;;6168030;23;20588;-90
2023/06/21 17:21:39;;;;;;;6.40;2.47;;;;;;;;;;6170449;23;20173;-91
2023/06/21 17:24:44;;;;;;;11.95;2.97;;;;;;;;;;6170026;23;20180;-90
2023/06/21 17:27:49;;;;;;;8.68;2.90;;;;;;;;;;6170014;23;20172;-90
2023/06/21 17:30:55;;;;;;;9.48;2.40;;;;;;;;;;6169183;23;20185;-90
2023/06/21 17:34:00;;;;;;;10.15;2.55;;;;;;;;;;6167436;23;20632;-91
2023/06/21 17:37:06;;;;;;;9.10;2.65;;;;;;;;;;6151814;23;20216;-90
2023/06/21 17:40:12;;;;;;;9.98;2.80;;;;;;;;;;6169807;23;20152;-91
2023/06/21 17:43:17;;;;;;;9.73;3.25;;;;;;;;;;6167994;23;20164;-92
2023/06/21 17:46:23;;;;;;;13.30;3.00;;;;;;;;;;6168296;23;20331;-90
2023/06/21 17:49:28;;;;;;;17.65;6.22;;;;;;;;;;6167112;23;20144;-89
2023/06/21 17:52:33;;;;;;;7.60;2.40;;;;;;;;;;6165682;23;20624;-90
2023/06/21 17:55:38;;;;;;;8.13;2.78;;;;;;;;;;6168188;23;20222;-90
2023/06/21 17:58:46;;;;;;;7.15;2.58;;;;;;;;;;6149997;23;20594;-91
2023/06/21 18:01:52;;;;;;;8.10;2.80;;;;;;;;;;6170996;23;20172;-92
2023/06/21 18:04:58;;;;;;;6.78;2.83;;;;;;;;;;6168640;23;20240;-90
2023/06/21 18:08:04;;;;;;;15.63;2.90;;;;;;;;;;6168168;23;20165;-91
2023/06/21 18:11:09;;;;;;;10.10;2.60;;;;;;;;;;6150818;23;20231;-91
2023/06/21 18:14:14;;;;;;;12.30;3.25;;;;;;;;;;6150990;23;20172;-91
2023/06/21 18:17:21;;;;;;;8.93;2.95;;;;;;;;;;6167228;23;20179;-91
2023/06/21 18:20:26;;;;;;;9.18;2.75;;;;;;;;;;6166968;23;20176;-91
2023/06/21 18:23:31;;;;;;;9.90;3.58;;;;;;;;;;6168090;23;20164;-92
2023/06/21 18:26:36;;;;;;;17.77;4.32;;;;;;;;;;6168006;23;20261;-90
2023/06/21 18:29:41;;;;;;;8.05;3.13;;;;;;;;;;6166995;23;20192;-90
2023/06/21 18:32:48;;;;;;;8.20;2.72;;;;;;;;;;6168327;23;20220;-91
2023/06/21 18:35:53;;;;;;;11.48;2.60;;;;;;;;;;6170614;23;20176;-90
2023/06/21 18:38:59;;;;;;;8.13;2.50;;;;;;;;;;6189237;23;20230;-90
2023/06/21 18:42:05;;;;;;;10.50;3.15;;;;;;;;;;6179673;23;20167;-90
2023/06/21 18:48:30;;;;;;;9.15;2.75;;;;;;;;;;6182362;23;20230;-91
2023/06/21 18:51:35;;;;;;;9.85;2.35;;;;;;;;;;6183912;23;20167;-89
2023/06/21 18:54:44;;;;;;;9.30;2.80;;;;;;;;;;6183293;23;20168;-91
2023/06/21 18:58:39;;;;;;;9.23;2.65;;;;;;;;;;6182210;23;20220;-90
2023/06/21 19:01:44;;;;;;;11.45;3.92;;;;;;;;;;6200778;23;20164;-89
2023/06/21 19:04:52;;;;;;;15.45;4.40;;;;;;;;;;6183547;23;20175;-89
2023/06/21 19:07:57;;;;;;;30.30;14.18;;;;;;;;;;6181907;23;20171;-88
2023/06/21 19:11:02;;;;;;;20.45;8.45;;;;;;;;;;6200006;23;20167;-91
2023/06/21 19:14:09;;;;;;;20.52;8.57;;;;;;;;;;6181775;23;20191;-90
2023/06/21 19:17:14;;;;;;;26.00;11.80;;;;;;;;;;6183309;23;20215;-90
2023/06/21 19:20:21;;;;;;;22.40;9.43;;;;;;;;;;6200109;23;20172;-90
2023/06/21 19:23:26;;;;;;;18.42;8.27;;;;;;;;;;6201059;23;20176;-89
2023/06/21 19:26:33;;;;;;;17.30;7.32;;;;;;;;;;6182418;23;20195;-90
2023/06/21 19:29:38;;;;;;;14.57;4.13;;;;;;;;;;6184490;23;20505;-90
2023/06/21 19:32:44;;;;;;;8.77;2.88;;;;;;;;;;6201341;23;20168;-90
2023/06/21 19:35:50;;;;;;;7.97;2.80;;;;;;;;;;6183467;23;20239;-89
2023/06/21 19:39:21;;;;;;;9.45;3.20;;;;;;;;;;6198020;23;20195;-90
2023/06/21 19:42:27;;;;;;;8.70;3.22;;;;;;;;;;6182543;23;20164;-91
2023/06/21 19:45:32;;;;;;;12.43;3.30;;;;;;;;;;6183300;23;20211;-89
2023/06/21 19:48:38;;;;;;;9.75;3.13;;;;;;;;;;6199823;23;20167;-90
2023/06/21 19:51:45;;;;;;;8.50;3.65;;;;;;;;;;6183558;23;20151;-89
2023/06/21 19:54:51;;;;;;;11.50;4.13;;;;;;;;;;6184607;23;20255;-90
2023/06/21 19:58:11;;;;;;;10.55;3.42;;;;;;;;;;6185289;23;20215;-90
2023/06/21 20:01:16;;;;;;;7.32;3.38;;;;;;;;;;6184889;23;20164;-90
2023/06/21 20:04:21;;;;;;;12.27;4.18;;;;;;;;;;6183279;23;20164;-89
2023/06/21 20:07:28;;;;;;;10.60;3.15;;;;;;;;;;6181515;23;20540;-90
2023/06/21 20:10:33;;;;;;;12.43;3.97;;;;;;;;;;6182793;23;20152;-90
2023/06/21 20:13:41;;;;;;;9.85;2.92;;;;;;;;;;6183766;23;20167;-90
2023/06/21 20:16:46;;;;;;;9.18;3.10;;;;;;;;;;6203318;23;20239;-89
2023/06/21 20:19:56;;;;;;;10.23;3.72;;;;;;;;;;6184533;23;20191;-92
2023/06/21 20:23:04;;;;;;;10.65;3.15;;;;;;;;;;6184805;23;20233;-88
2023/06/21 20:26:09;;;;;;;12.27;3.42;;;;;;;;;;6186290;23;20195;-90
2023/06/21 20:29:16;;;;;;;14.23;4.45;;;;;;;;;;6205583;23;20164;-90
2023/06/21 20:32:22;;;;;;;11.88;3.83;;;;;;;;;;6188214;23;20168;-89
2023/06/21 20:35:28;;;;;;;8.18;3.90;;;;;;;;;;6202741;23;20172;-93
2023/06/21 20:38:35;;;;;;;10.75;3.60;;;;;;;;;;6171586;23;20179;-90
2023/06/21 20:41:41;;;;;;;15.02;4.20;;;;;;;;;;6188782;23;20609;-92
2023/06/21 20:44:46;;;;;;;9.43;3.67;;;;;;;;;;6171435;23;20172;-92
2023/06/21 20:47:56;;;;;;;9.82;3.20;;;;;;;;;;6171196;23;20229;-92
2023/06/21 20:51:01;;;;;;;10.23;3.35;;;;;;;;;;6168436;23;20169;-93
2023/06/21 20:54:11;;;;;;;12.95;3.28;;;;;;;;;;6168288;23;20173;-92
2023/06/21 20:57:17;;;;;;;11.40;3.90;;;;;;;;;;6168198;23;20273;-93
2023/06/21 21:00:23;;;;;;;10.50;3.60;;;;;;;;;;6169527;23;20628;-92
2023/06/21 21:03:28;;;;;;;13.48;3.60;;;;;;;;;;6168590;23;20251;-91
2023/06/21 21:06:33;;;;;;;10.02;3.58;;;;;;;;;;6168598;23;20235;-93
2023/06/21 21:09:40;;;;;;;10.05;3.60;;;;;;;;;;6168824;23;20165;-91
2023/06/21 21:12:46;;;;;;;8.95;3.03;;;;;;;;;;6170394;23;20164;-89
2023/06/21 21:15:51;;;;;;;7.90;3.20;;;;;;;;;;6169764;23;20177;-91
2023/06/21 21:18:59;;;;;;;10.90;3.85;;;;;;;;;;6169509;23;20196;-90
2023/06/21 21:22:04;;;;;;;10.65;3.55;;;;;;;;;;6170083;23;20176;-92
2023/06/21 21:25:11;;;;;;;11.15;3.60;;;;;;;;;;6166347;23;20239;-90
2023/06/21 21:28:17;;;;;;;13.00;3.67;;;;;;;;;;6167007;23;20238;-92
2023/06/21 21:31:22;;;;;;;11.77;3.88;;;;;;;;;;6168166;23;20156;-91
2023/06/21 21:34:27;;;;;;;10.43;3.83;;;;;;;;;;6168491;23;20176;-91
2023/06/21 21:37:32;;;;;;;9.20;3.85;;;;;;;;;;6168027;23;20176;-89
2023/06/21 21:41:12;;;;;;;9.60;3.83;;;;;;;;;;6178286;23;20167;-91
2023/06/21 21:44:18;;;;;;;11.02;3.47;;;;;;;;;;6180691;23;20243;-92
2023/06/21 21:47:25;;;;;;;11.15;3.42;;;;;;;;;;6179210;23;20199;-89
2023/06/21 21:50:30;;;;;;;11.95;3.80;;;;;;;;;;6179403;23;20923;-92
2023/06/21 21:53:35;;;;;;;8.40;3.15;;;;;;;;;;6177845;23;20175;-92
2023/06/21 21:57:13;;;;;;;9.40;3.63;;;;;;;;;;6197495;23;20147;-90
2023/06/21 22:00:20;;;;;;;9.20;3.55;;;;;;;;;;6180674;23;20562;-90
2023/06/21 22:03:29;;;;;;;9.30;3.20;;;;;;;;;;6181617;23;20239;-91
2023/06/21 22:06:34;;;;;;;10.10;3.42;;;;;;;;;;6177936;23;20195;-89
2023/06/21 22:09:39;;;;;;;10.10;3.70;;;;;;;;;;6180552;23;20217;-90
2023/06/21 22:12:44;;;;;;;11.07;3.33;;;;;;;;;;6178163;23;20191;-91
2023/06/21 22:15:51;;;;;;;12.98;3.80;;;;;;;;;;6180005;23;20172;-91
2023/06/21 22:18:56;;;;;;;10.07;3.30;;;;;;;;;;6179464;23;20630;-91
2023/06/21 22:22:01;;;;;;;9.30;3.90;;;;;;;;;;6180408;23;20496;-92
2023/06/21 22:25:07;;;;;;;20.25;3.85;;;;;;;;;;6179357;23;20192;-91
2023/06/21 22:28:13;;;;;;;10.05;3.53;;;;;;;;;;6178957;23;20168;-92
2023/06/21 22:31:19;;;;;;;9.60;3.42;;;;;;;;;;6179586;23;20164;-90
2023/06/21 22:34:24;;;;;;;11.10;3.83;;;;;;;;;;6177676;23;20196;-91
2023/06/21 22:37:29;;;;;;;9.35;4.32;;;;;;;;;;6194232;23;20188;-92
2023/06/21 22:40:39;;;;;;;17.50;4.43;;;;;;;;;;6193191;23;20804;-91
2023/06/21 22:43:44;;;;;;;7.97;3.50;;;;;;;;;;6176483;23;20171;-90
2023/06/21 22:46:51;;;;;;;14.48;3.90;;;;;;;;;;6176977;23;20187;-91
2023/06/21 22:49:56;;;;;;;11.85;3.83;;;;;;;;;;6180930;23;20167;-90
2023/06/21 22:53:01;;;;;;;12.63;4.50;;;;;;;;;;6177123;23;20592;-91
2023/06/21 22:56:36;;;;;;;14.68;3.95;;;;;;;;;;6178187;23;20176;-91
2023/06/21 22:59:41;;;;;;;14.80;4.47;;;;;;;;;;6177519;23;20183;-91
2023/06/21 23:02:48;;;;;;;8.50;3.95;;;;;;;;;;6179809;23;20163;-90
2023/06/21 23:05:53;;;;;;;17.73;4.28;;;;;;;;;;6180667;23;20168;-91
2023/06/21 23:09:02;;;;;;;10.32;4.20;;;;;;;;;;6178954;23;20168;-91
2023/06/21 23:12:07;;;;;;;11.63;3.95;;;;;;;;;;6179743;23;20168;-90
2023/06/21 23:15:19;;;;;;;9.18;3.85;;;;;;;;;;6180291;23;20163;-90
2023/06/21 23:18:30;;;;;;;7.82;3.42;;;;;;;;;;6180583;23;20167;-90
2023/06/21 23:21:40;;;;;;;13.05;3.80;;;;;;;;;;6195509;23;20598;-90
2023/06/21 23:24:46;;;;;;;11.63;4.22;;;;;;;;;;6178391;23;20826;-90
2023/06/21 23:27:51;;;;;;;6.95;3.60;;;;;;;;;;6177010;23;20246;-91
2023/06/21 23:30:57;;;;;;;8.80;3.75;;;;;;;;;;6179449;23;20228;-92
2023/06/21 23:34:04;;;;;;;13.88;4.47;;;;;;;;;;6178099;23;20179;-90
2023/06/21 23:37:12;;;;;;;8.65;3.83;;;;;;;;;;6177658;23;20276;-89
2023/06/21 23:40:27;;;;;;;10.60;3.83;;;;;;;;;;6165729;23;20172;-90
2023/06/21 23:43:36;;;;;;;11.98;4.65;;;;;;;;;;6168911;23;20168;-91
2023/06/21 23:46:41;;;;;;;11.57;4.95;;;;;;;;;;6168547;23;20195;-93
2023/06/21 23:49:48;;;;;;;10.70;5.18;;;;;;;;;;6168414;23;20169;-88
2023/06/21 23:52:54;;;;;;;11.77;4.25;;;;;;;;;;6170972;23;20193;-90
2023/06/21 23:56:05;;;;;;;13.60;4.05;;;;;;;;;;6168318;23;20169;-90
2023/06/21 23:59:10;;;;;;;13.27;4.30;;;;;;;;;;6175716;23;20181;-90
